Time;durP1;ratioP1;P1;durP2;ratioP2;P2;SDS_P1;SDS_P2;PMS_P1;PMS_P2;Temp;Humidity;BMP_temperature;BMP_pressure;BME280_temperature;BME280_humidity;BME280_pressure;Samples;Min_cycle;Max_cycle;Signal;HPM_P1;HPM_P2
2022/04/06 04:59:14;;;;;;;2.60;2.40;;;11.80;89.40;;;12.32;58.14;97870.19;5380669;23;98487;-76
2022/04/06 05:05:22;;;;;;;4.30;2.57;;;11.10;89.00;;;12.28;58.32;97857.41;4962288;28;125081;-76
2022/04/06 05:11:31;;;;;;;2.73;2.47;;;10.00;87.90;;;12.26;58.39;97854.16;4962697;28;116575;-77
2022/04/06 05:38:34;;;;;;;3.00;2.30;;;12.00;90.00;;;12.55;57.92;97853.91;5277679;23;99126;-85
2022/04/06 05:44:43;;;;;;;3.40;2.27;;;11.10;89.10;;;12.60;57.96;97856.44;4961936;28;115245;-83
2022/04/06 05:50:51;;;;;;;3.07;2.40;;;11.20;89.20;;;12.63;57.99;97851.34;4961448;28;125169;-82
2022/04/06 05:57:00;;;;;;;2.17;1.97;;;11.80;89.70;;;12.69;57.80;97853.53;4942213;28;116096;-83
2022/04/06 06:03:09;;;;;;;2.80;1.90;;;12.10;90.00;;;12.71;57.89;97853.19;4940937;28;124198;-92
2022/04/06 06:09:17;;;;;;;3.60;2.30;;;13.00;90.30;;;12.76;57.70;97862.06;4942333;28;116585;-77
2022/04/06 06:18:03;;;;;;;2.70;2.50;;;12.20;89.80;;;12.80;57.51;97860.19;5496658;23;97939;-76
2022/04/06 06:24:12;;;;;;;2.37;2.17;;;12.10;89.60;;;12.82;57.54;97854.31;4960543;28;114992;-79
2022/04/06 06:30:21;;;;;;;4.37;3.20;;;12.20;89.50;;;12.82;57.33;97855.13;4975614;28;123661;-84
2022/04/06 06:36:32;;;;;;;2.63;2.43;;;12.30;89.60;;;12.84;57.52;97863.06;4970503;28;115011;-92
2022/04/06 06:43:00;;;;;;;4.47;3.30;;;11.30;88.60;;;12.86;57.46;97854.41;4958120;28;124786;-91
2022/04/06 06:46:25;;;;;;;2.60;2.40;;;10.80;88.80;;;12.86;57.34;97854.41;4943021;28;114718;-91
2022/04/06 06:52:34;;;;;;;2.97;2.60;;;10.80;87.90;;;12.87;57.52;97861.56;4941116;28;125123;-84
2022/04/06 06:55:03;;;;;;;3.40;3.10;;;13.90;90.50;;;12.89;57.26;97853.72;4956349;28;123606;-82
2022/04/06 07:09:07;;;;;;;4.87;2.80;;;12.90;89.80;;;12.94;57.13;97839.59;4954464;28;124693;-90
2022/04/06 07:11:58;;;;;;;2.40;2.20;;;12.40;89.30;;;12.97;57.42;97838.91;4924433;28;113858;-93
2022/04/06 07:18:53;;;;;;;3.83;2.27;;;13.20;90.00;;;13.03;57.22;97834.72;4974581;28;125279;-84
2022/04/06 07:22:00;;;;;;;3.87;2.77;;;12.50;89.30;;;13.10;57.20;97839.66;4925047;28;122737;-93
2022/04/06 07:28:26;;;;;;;2.63;2.43;;;12.50;89.10;;;13.20;57.26;97826.09;4893585;28;114875;-89
2022/04/06 07:31:01;;;;;;;2.70;2.50;;;12.60;89.30;;;13.28;56.93;97827.13;4908098;28;123140;-93
2022/04/06 07:34:05;;;;;;;2.37;2.10;;;12.60;89.20;;;13.32;56.84;97824.44;4907650;28;122028;-92
2022/04/06 07:37:29;;;;;;;2.70;2.43;;;12.70;89.00;;;13.31;56.72;97826.44;4830925;29;112624;-93
2022/04/06 07:48:00;;;;;;;2.97;1.90;;;12.80;88.60;;;13.30;56.55;97824.00;4848471;29;124749;-90
2022/04/06 07:57:53;;;;;;;3.70;2.00;;;11.90;87.30;;;13.32;56.50;97822.47;4857647;29;124835;-92
2022/04/06 08:01:10;;;;;;;1.90;1.80;;;12.80;88.60;;;13.36;56.22;97822.59;4841462;28;122206;-91
2022/04/06 08:07:27;;;;;;;2.37;2.00;;;12.90;88.00;;;13.39;56.00;97832.97;4895133;28;115464;-92
2022/04/06 08:10:30;;;;;;;2.20;2.00;;;12.90;87.80;;;13.38;56.19;97821.06;4914711;28;126078;-88
2022/04/06 08:13:58;;;;;;;1.90;1.80;;;13.00;87.70;;;13.47;56.02;97818.13;4908546;28;123303;-93
2022/04/06 08:31:27;;;;;;;1.40;1.20;;;12.30;85.80;;;13.71;55.09;97806.06;4941893;28;115487;-92
2022/04/06 08:41:20;;;;;;;1.37;1.23;;;13.40;86.10;;;13.93;54.07;97808.22;5005378;23;124741;-91
2022/04/06 08:43:52;;;;;;;1.60;1.43;;;13.40;85.50;;;13.98;53.69;97820.22;4919464;28;112964;-87
2022/04/06 08:47:21;;;;;;;1.43;1.33;;;13.50;85.20;;;13.94;52.87;97831.22;4903506;28;114731;-92
2022/04/06 08:50:18;;;;;;;1.20;1.10;;;13.50;83.90;;;13.91;52.80;97815.28;4873233;29;123270;-92
2022/04/06 08:52:50;;;;;;;1.30;1.20;;;13.50;83.50;;;13.91;52.88;97815.28;4845505;29;123268;-92
2022/04/06 08:59:00;;;;;;;1.77;1.20;;;13.50;83.40;;;14.08;52.15;97803.03;4879855;28;114476;-92
2022/04/06 09:01:47;;;;;;;1.10;1.00;;;13.60;83.40;;;14.20;51.86;97811.22;4854199;29;98000;-92
2022/04/06 09:05:11;;;;;;;1.37;1.10;;;13.70;82.60;;;14.29;51.57;97797.13;4862661;29;122590;-92
2022/04/06 09:07:41;;;;;;;1.00;0.90;;;13.70;82.30;;;14.40;51.56;97797.38;4877624;29;114983;-93
2022/04/06 09:14:02;;;;;;;1.20;1.10;;;14.00;81.90;;;14.61;50.65;97792.34;4872647;29;124258;-92
2022/04/06 09:17:02;;;;;;;1.67;1.10;;;14.10;81.20;;;14.66;50.34;97800.38;4851534;28;124515;-86
2022/04/06 09:23:10;;;;;;;1.10;1.00;;;14.20;80.50;;;14.76;49.85;97788.69;4846974;29;114299;-92
2022/04/06 09:29:21;;;;;;;1.50;1.20;;;14.40;79.70;;;14.83;49.66;97792.78;4917221;28;124193;-93
2022/04/06 09:31:50;;;;;;;3.27;1.07;;;14.40;79.30;;;14.87;49.02;97794.47;4892962;28;113076;-92
2022/04/06 09:34:23;;;;;;;1.70;1.20;;;14.40;78.70;;;14.88;48.43;97800.84;4914840;28;113125;-92
2022/04/06 09:40:37;;;;;;;1.00;0.90;;;14.50;77.20;;;14.86;47.75;97792.88;4908097;28;124196;-91
2022/04/06 09:43:07;;;;;;;1.20;1.03;;;14.50;76.70;;;14.87;47.52;97779.78;4893844;28;113718;-92
2022/04/06 09:49:18;;;;;;;1.20;0.90;;;14.50;76.20;;;14.97;47.75;97771.66;4918482;28;123835;-92
2022/04/06 09:52:22;;;;;;;0.90;0.80;;;14.50;76.40;;;15.03;47.48;97788.84;4880579;28;123441;-93
2022/04/06 09:54:49;;;;;;;1.00;0.90;;;14.60;76.00;;;15.07;46.99;97784.19;4863148;28;113456;-92
2022/04/06 09:57:17;;;;;;;1.17;0.90;;;14.60;75.50;;;15.08;46.90;97769.09;4887641;28;113532;-93
2022/04/06 10:00:40;;;;;;;1.03;0.93;;;14.70;75.30;;;15.11;46.62;97773.09;4894423;28;123407;-92
2022/04/06 10:03:14;;;;;;;1.00;0.90;;;14.60;74.60;;;15.15;46.37;97783.13;4890716;28;122581;-91
2022/04/06 10:06:00;;;;;;;0.83;0.83;;;14.70;74.60;;;15.16;46.41;97756.13;4906196;28;114554;-94
2022/04/06 10:09:07;;;;;;;1.10;1.00;;;14.80;74.30;;;15.17;46.14;97752.16;4909259;28;114767;-93
2022/04/06 10:11:36;;;;;;;1.00;0.90;;;14.80;74.00;;;15.20;46.42;97745.84;4875050;28;122458;-93
2022/04/06 10:14:09;;;;;;;1.17;0.90;;;14.80;74.40;;;15.27;46.24;97740.41;4897926;28;124479;-93
2022/04/06 10:24:51;;;;;;;1.00;0.90;;;15.00;74.30;;;15.48;46.16;97728.06;4895423;28;124907;-92
2022/04/06 10:27:57;;;;;;;1.10;0.80;;;15.00;74.40;;;15.52;45.78;97723.34;4899006;28;122793;-93
2022/04/06 10:30:28;;;;;;;1.00;0.90;;;15.10;74.00;;;15.55;45.63;97722.59;4914513;28;114428;-92
2022/04/06 10:33:20;;;;;;;1.00;0.90;;;15.10;73.60;;;15.61;45.52;97721.94;4899358;28;113542;-92
2022/04/06 10:35:49;;;;;;;1.00;0.83;;;15.20;73.50;;;15.70;45.45;97734.84;4887725;28;124210;-94
2022/04/06 10:38:36;;;;;;;1.10;0.90;;;15.20;73.40;;;15.74;45.01;97708.63;4900420;28;122998;-93
2022/04/06 10:41:06;;;;;;;0.80;0.77;;;15.30;72.50;;;15.77;45.11;97707.91;4890748;28;113483;-94
2022/04/06 10:43:56;;;;;;;1.23;1.10;;;15.30;72.70;;;15.79;44.53;97710.31;4902625;28;113380;-93
2022/04/06 10:46:41;;;;;;;3.43;0.90;;;15.40;72.10;;;15.80;44.22;97717.50;4806095;29;123469;-93
2022/04/06 10:53:20;;;;;;;0.90;0.80;;;15.40;70.60;;;15.74;43.93;97691.13;4785677;29;114922;-92
2022/04/06 10:56:07;;;;;;;1.00;0.80;;;15.40;70.60;;;15.79;43.72;97679.66;4787450;29;113093;-93
2022/04/06 10:59:16;;;;;;;1.00;0.90;;;15.40;70.30;;;15.85;43.63;97681.78;4791491;29;123656;-86
2022/04/06 11:01:46;;;;;;;1.90;0.90;;;15.40;70.10;;;15.93;43.53;97681.84;4786214;29;122619;-92
2022/04/06 11:12:17;;;;;;;1.53;0.80;;;15.70;69.50;;;16.08;43.10;97658.59;4800284;29;124525;-93
2022/04/06 11:15:03;;;;;;;1.03;0.90;;;15.80;69.50;;;16.08;43.45;97656.63;4800860;29;124389;-93
2022/04/06 11:18:26;;;;;;;1.00;0.90;;;15.70;69.50;;;16.08;43.47;97653.03;4801188;29;115093;-93
2022/04/06 11:21:01;;;;;;;1.87;1.00;;;15.70;69.70;;;16.16;43.55;97645.56;4798653;29;114766;-93
2022/04/06 11:27:26;;;;;;;0.90;0.80;;;15.80;69.30;;;16.22;43.14;97630.91;4910635;28;124170;-94
2022/04/06 11:30:34;;;;;;;1.10;0.80;;;15.80;68.90;;;16.21;42.99;97632.09;4913697;28;114243;-92
2022/04/06 11:33:23;;;;;;;0.80;0.77;;;15.90;68.70;;;16.28;43.04;97628.59;4910975;28;114764;-93
2022/04/06 11:36:31;;;;;;;1.30;1.10;;;15.90;68.90;;;16.40;43.10;97621.97;4945656;23;124163;-93
2022/04/06 11:42:40;;;;;;;1.07;0.90;;;15.10;68.40;;;16.59;42.53;97616.22;4906904;28;115118;-94
2022/04/06 11:46:05;;;;;;;1.57;0.93;;;16.20;68.90;;;16.60;42.44;97605.88;4911182;28;113214;-93
2022/04/06 11:52:14;;;;;;;1.17;1.00;;;16.30;68.70;;;16.80;42.26;97603.75;4903403;28;124814;-94
2022/04/06 11:55:20;;;;;;;1.07;0.97;;;16.30;68.40;;;16.92;42.27;97603.44;4907691;28;114156;-94
2022/04/06 11:57:48;;;;;;;0.90;0.77;;;16.40;68.40;;;17.09;42.10;97608.41;4886363;28;113453;-92
2022/04/06 12:00:16;;;;;;;1.27;0.87;;;16.60;68.70;;;17.27;42.04;97596.56;4898233;28;124077;-92
2022/04/06 12:03:32;;;;;;;1.00;0.90;;;16.70;68.50;;;17.42;41.27;97582.34;4890094;28;123470;-93
2022/04/06 12:06:18;;;;;;;1.07;0.90;;;16.90;67.20;;;17.53;40.91;97585.22;4905869;28;114240;-93
2022/04/06 12:12:31;;;;;;;1.10;0.90;;;17.20;66.50;;;17.71;40.16;97581.75;4916482;28;124318;-92
2022/04/06 12:15:41;;;;;;;1.10;0.90;;;17.20;65.90;;;17.81;40.17;97586.59;4922256;28;123455;-94
2022/04/06 12:18:12;;;;;;;0.80;0.70;;;17.40;65.60;;;17.93;39.73;97566.72;4918714;28;114791;-94
2022/04/06 12:20:43;;;;;;;0.90;0.77;;;17.40;65.00;;;18.00;39.00;97569.56;4916265;28;113448;-93
2022/04/06 12:23:11;;;;;;;1.10;0.80;;;17.50;64.00;;;18.04;39.41;97573.16;4907483;28;122862;-93
2022/04/06 12:25:45;;;;;;;1.73;0.80;;;17.60;64.10;;;18.14;39.11;97560.44;4925032;28;125476;-93
2022/04/06 12:28:36;;;;;;;1.00;0.90;;;17.60;63.90;;;18.21;38.21;97548.47;4885592;28;112472;-93
2022/04/06 12:35:43;;;;;;;1.43;0.90;;;17.80;61.50;;;18.28;37.69;97545.69;4921731;28;124379;-93
2022/04/06 12:38:21;;;;;;;1.03;0.80;;;17.90;61.10;;;18.40;37.79;97534.13;4903530;28;123494;-93
2022/04/06 12:41:05;;;;;;;1.00;0.80;;;17.90;61.40;;;18.56;37.56;97525.38;4905999;28;114101;-94
2022/04/06 12:43:40;;;;;;;1.67;0.97;;;16.30;59.20;;;18.74;37.18;97526.25;4905382;28;113048;-93
2022/04/06 12:46:11;;;;;;;1.00;0.80;;;16.20;59.10;;;18.91;37.21;97513.47;4841699;28;122744;-95
2022/04/06 12:48:46;;;;;;;0.90;0.80;;;18.30;60.60;;;19.02;36.97;97524.69;4920657;28;123341;-93
2022/04/06 12:55:35;;;;;;;1.10;0.90;;;18.60;58.80;;;19.11;36.11;97511.06;4922970;28;114020;-94
2022/04/06 12:58:41;;;;;;;1.50;0.90;;;18.70;58.50;;;19.13;36.11;97519.88;4924675;28;123439;-94
2022/04/06 13:02:05;;;;;;;1.00;0.83;;;18.70;58.00;;;19.13;36.05;97503.06;4909478;28;123519;-94
2022/04/06 13:04:54;;;;;;;3.17;0.90;;;18.80;58.20;;;19.20;36.06;97503.03;4865964;29;113656;-93
2022/04/06 13:08:22;;;;;;;1.00;0.80;;;18.80;58.00;;;19.23;35.79;97490.25;4842801;29;115103;-94
2022/04/06 13:10:49;;;;;;;0.90;0.70;;;18.80;57.30;;;19.33;35.64;97494.25;4868609;29;123297;-93
2022/04/06 13:14:15;;;;;;;0.90;0.70;;;18.90;57.40;;;19.39;35.55;97501.81;4867716;28;123167;-93
2022/04/06 13:16:41;;;;;;;0.90;0.70;;;19.00;57.30;;;19.49;35.81;97500.22;4864061;29;113939;-94
2022/04/06 13:19:26;;;;;;;1.20;0.90;;;19.00;57.10;;;19.56;35.23;97497.41;4835321;29;111921;-94
2022/04/06 13:29:18;;;;;;;1.60;0.80;;;19.40;55.80;;;19.83;34.54;97480.91;4866242;28;114459;-92
2022/04/06 13:31:46;;;;;;;0.80;0.70;;;19.40;55.50;;;19.83;34.78;97482.94;4843947;29;113673;-93
2022/04/06 13:34:16;;;;;;;1.13;1.03;;;19.40;55.50;;;19.91;34.65;97466.84;4855125;29;122572;-94
2022/04/06 13:36:44;;;;;;;1.40;1.03;;;19.40;55.50;;;20.03;34.31;97472.00;4836324;29;121529;-93
2022/04/06 13:39:12;;;;;;;1.00;0.80;;;19.50;55.30;;;20.12;34.52;97475.16;4816155;29;113711;-93
2022/04/06 13:41:41;;;;;;;0.90;0.70;;;19.60;55.10;;;20.25;34.20;97459.47;4831586;29;113822;-92
2022/04/06 13:44:08;;;;;;;1.03;0.80;;;19.70;55.00;;;20.38;34.14;97461.81;4830534;29;124273;-94
2022/04/06 13:46:38;;;;;;;1.00;0.90;;;19.80;55.00;;;20.43;33.70;97458.56;4842098;29;124099;-94
2022/04/06 13:49:06;;;;;;;0.80;0.80;;;19.90;53.90;;;20.49;33.08;97459.72;4893376;28;113659;-93
2022/04/06 13:51:41;;;;;;;0.83;0.80;;;20.00;53.70;;;20.60;33.52;97457.66;4906344;28;113817;-93
2022/04/06 13:54:08;;;;;;;0.90;0.80;;;20.10;53.50;;;20.65;33.01;97460.03;4889429;28;123853;-93
2022/04/06 13:56:53;;;;;;;1.10;0.87;;;20.10;52.50;;;20.63;33.62;97445.63;4903900;28;124072;-93
2022/04/06 13:59:23;;;;;;;0.83;0.70;;;20.20;53.20;;;20.71;33.28;97444.38;4866861;28;113875;-94
2022/04/06 14:01:52;;;;;;;1.20;0.80;;;20.20;53.10;;;20.76;33.23;97448.72;4886601;28;112995;-93
2022/04/06 14:04:21;;;;;;;1.10;0.80;;;20.30;53.20;;;20.77;32.77;97438.28;4899641;28;123271;-94
2022/04/06 14:07:07;;;;;;;0.90;0.80;;;20.30;52.50;;;20.83;33.06;97431.81;4904052;28;123590;-93
2022/04/06 14:09:35;;;;;;;2.80;0.90;;;20.40;52.90;;;20.92;32.92;97434.94;4906965;28;113071;-94
2022/04/06 14:12:06;;;;;;;0.93;0.80;;;20.40;52.60;;;20.94;32.60;97437.34;4905821;28;113685;-91
2022/04/06 14:14:33;;;;;;;1.60;1.00;;;20.50;52.20;;;20.92;32.63;97459.41;4874227;28;123674;-92
2022/04/06 14:17:02;;;;;;;1.40;0.97;;;20.50;51.70;;;20.79;32.01;97447.88;4888153;28;124236;-94
2022/04/06 14:19:29;;;;;;;1.03;0.93;;;20.40;50.80;;;20.64;32.48;97416.34;4904057;28;113485;-93
2022/04/06 14:21:57;;;;;;;1.00;0.80;;;20.40;51.20;;;20.59;32.98;97430.03;4910439;28;113537;-94
2022/04/06 14:24:24;;;;;;;0.80;0.70;;;20.30;51.50;;;20.54;33.15;97431.25;4911473;28;123282;-93
2022/04/06 14:26:52;;;;;;;0.90;0.80;;;20.20;51.30;;;20.45;32.67;97439.31;4911839;28;123891;-94
2022/04/06 14:29:21;;;;;;;1.10;0.80;;;20.10;50.90;;;20.34;32.84;97436.59;4890705;28;112382;-95
2022/04/06 14:32:07;;;;;;;1.17;0.97;;;20.10;51.10;;;20.26;32.99;97416.19;4891919;28;113139;-94
2022/04/06 14:35:31;;;;;;;1.10;0.83;;;20.00;51.10;;;20.20;32.99;97420.66;4895555;28;123324;-94
2022/04/06 14:37:59;;;;;;;1.13;0.90;;;19.90;51.10;;;20.16;33.33;97416.28;4912866;28;124876;-92
2022/04/06 14:40:25;;;;;;;0.90;0.80;;;19.80;51.30;;;20.08;33.54;97421.91;4879661;28;113890;-92
2022/04/06 14:42:54;;;;;;;1.23;0.80;;;19.80;51.40;;;19.95;33.30;97420.00;4866470;28;112727;-93
2022/04/06 14:45:39;;;;;;;1.17;0.90;;;19.70;51.20;;;19.79;33.56;97418.47;4869891;28;122384;-94
2022/04/06 14:48:09;;;;;;;1.00;0.90;;;19.60;51.40;;;19.67;33.94;97418.94;4862801;28;121505;-93
2022/04/06 14:50:57;;;;;;;1.20;0.90;;;19.40;51.60;;;19.51;34.33;97421.38;4876392;28;115103;-92
2022/04/06 14:54:02;;;;;;;1.10;0.90;;;19.30;52.00;;;19.30;34.64;97419.44;4882716;28;112925;-94
2022/04/06 14:56:47;;;;;;;2.07;0.90;;;19.20;52.10;;;19.15;35.11;97404.66;4894489;28;122484;-93
2022/04/06 14:59:15;;;;;;;0.80;0.80;;;18.90;52.60;;;19.08;35.65;97413.88;4876900;28;122462;-92
2022/04/06 15:01:41;;;;;;;1.00;0.90;;;18.80;53.10;;;19.09;35.33;97417.47;4863637;28;113855;-92
2022/04/06 15:04:10;;;;;;;1.20;1.00;;;18.80;53.30;;;19.03;35.67;97424.69;4860483;28;112858;-93
2022/04/06 15:10:19;;;;;;;1.00;0.90;;;18.70;53.80;;;18.83;36.16;97397.13;4901971;28;123744;-93
2022/04/06 15:12:45;;;;;;;1.83;0.90;;;18.50;54.10;;;18.79;36.19;97399.13;4873731;28;112432;-92
2022/04/06 15:15:13;;;;;;;1.10;1.00;;;18.50;54.50;;;18.76;36.45;97395.13;4894784;28;113281;-94
2022/04/06 15:17:40;;;;;;;1.00;0.90;;;18.50;54.60;;;18.76;36.69;97408.34;4883062;28;122502;-93
2022/04/06 15:20:11;;;;;;;2.50;0.90;;;18.40;54.80;;;18.72;36.64;97399.09;4881668;28;121971;-94
2022/04/06 15:22:39;;;;;;;1.20;0.87;;;18.40;55.10;;;18.70;36.61;97391.13;4881197;28;112970;-94
2022/04/06 15:25:06;;;;;;;1.67;0.97;;;18.40;55.20;;;18.68;36.84;97401.13;4879220;28;113513;-94
2022/04/06 15:27:53;;;;;;;0.83;0.73;;;18.40;55.40;;;18.61;36.61;97387.91;4880114;28;123559;-93
2022/04/06 15:30:21;;;;;;;1.87;0.90;;;18.30;55.30;;;18.57;37.04;97394.72;4878300;28;121364;-92
2022/04/06 15:33:08;;;;;;;1.10;0.90;;;18.30;55.50;;;18.54;37.17;97387.94;4892062;28;113844;-93
2022/04/06 15:38:20;;;;;;;1.50;1.00;;;18.20;55.90;;;18.45;37.52;97385.53;4895103;28;124321;-93
2022/04/06 15:40:48;;;;;;;1.37;0.93;;;18.10;56.20;;;18.45;37.64;97374.34;4878479;28;122291;-92
2022/04/06 15:43:14;;;;;;;0.90;0.77;;;18.10;56.10;;;18.46;37.50;97394.72;4890894;28;115190;-92
2022/04/06 15:45:41;;;;;;;1.10;1.00;;;18.10;56.60;;;18.52;37.60;97381.94;4891879;28;113928;-94
2022/04/06 15:48:08;;;;;;;2.30;1.10;;;18.10;56.60;;;18.62;37.61;97377.50;4881396;28;124300;-93
2022/04/06 15:50:37;;;;;;;1.60;1.00;;;19.40;57.90;;;18.72;37.33;97383.09;4879789;28;123004;-93
2022/04/06 15:53:06;;;;;;;1.37;1.03;;;18.30;56.80;;;18.74;37.37;97386.34;4889841;28;114010;-93
2022/04/06 15:55:33;;;;;;;1.20;1.00;;;18.30;56.70;;;18.70;37.37;97379.94;4878880;28;113559;-91
2022/04/06 15:58:01;;;;;;;1.10;0.90;;;18.30;56.30;;;18.64;37.45;97375.13;4892893;28;124093;-93
2022/04/06 16:00:27;;;;;;;1.00;0.83;;;18.30;56.50;;;18.58;37.64;97368.34;4883440;28;122568;-94
2022/04/06 16:02:54;;;;;;;0.97;0.80;;;18.30;56.70;;;18.54;37.76;97376.75;4891130;28;112563;-92
2022/04/06 16:09:02;;;;;;;0.97;0.87;;;18.20;56.80;;;18.35;38.00;97366.75;4921460;28;124382;-93
2022/04/06 16:11:30;;;;;;;1.20;1.00;;;18.10;57.00;;;18.35;38.18;97368.75;4886690;28;122976;-93
2022/04/06 16:14:16;;;;;;;1.17;1.00;;;18.10;57.30;;;18.35;38.11;97360.34;4884943;28;112098;-92
2022/04/06 16:17:39;;;;;;;1.53;0.97;;;18.00;57.30;;;18.36;38.06;97367.56;4883115;28;114101;-94
2022/04/06 16:20:08;;;;;;;1.00;0.90;;;18.00;57.40;;;18.34;38.44;97370.75;4924261;28;122098;-92
2022/04/06 16:22:54;;;;;;;2.13;1.40;;;18.00;57.50;;;18.29;38.32;97354.34;4869378;28;123049;-92
2022/04/06 16:25:21;;;;;;;1.13;1.00;;;18.00;57.50;;;18.23;38.30;97353.97;4883139;28;112771;-93
2022/04/06 16:28:27;;;;;;;1.20;0.90;;;17.90;57.60;;;18.15;38.50;97349.56;4884565;28;112233;-93
2022/04/06 16:30:54;;;;;;;1.40;1.00;;;17.90;57.50;;;18.14;38.50;97353.56;4892713;28;122459;-91
2022/04/06 16:33:21;;;;;;;1.13;1.03;;;17.80;57.50;;;18.10;38.74;97353.53;4889281;28;122490;-93
2022/04/06 16:35:51;;;;;;;1.20;1.00;;;17.80;57.60;;;18.07;38.83;97347.97;4884549;28;113494;-92
2022/04/06 16:38:40;;;;;;;1.33;1.00;;;17.70;57.70;;;18.00;38.78;97343.19;4888625;28;112652;-92
2022/04/06 16:41:10;;;;;;;2.37;0.90;;;17.70;57.80;;;17.98;38.79;97339.97;4887363;28;124003;-92
2022/04/06 16:43:42;;;;;;;1.67;1.10;;;17.60;58.00;;;17.95;38.84;97340.78;4884883;28;122148;-93
2022/04/06 16:46:10;;;;;;;1.17;1.07;;;17.60;58.40;;;17.89;39.17;97336.75;4911707;28;113585;-93
2022/04/06 16:48:37;;;;;;;1.00;0.90;;;17.60;58.30;;;17.83;39.38;97352.31;4891906;28;112467;-93
2022/04/06 16:53:51;;;;;;;1.60;1.23;;;17.50;58.60;;;17.71;39.86;97342.31;4894992;28;124713;-93
2022/04/06 16:56:18;;;;;;;1.00;0.90;;;17.40;58.70;;;17.68;39.73;97331.91;4898721;28;112716;-92
2022/04/06 16:58:48;;;;;;;1.20;1.10;;;17.40;58.90;;;17.66;39.63;97340.69;4876495;28;112804;-91
2022/04/06 17:01:15;;;;;;;1.73;1.07;;;17.30;59.00;;;17.62;39.79;97339.06;4860884;28;122998;-92
2022/04/06 17:03:43;;;;;;;2.27;0.80;;;17.30;59.10;;;17.57;39.71;97347.81;4840911;28;122825;-93
2022/04/06 17:06:12;;;;;;;1.40;1.00;;;17.50;59.40;;;17.50;39.81;97345.03;4856807;28;112140;-93
2022/04/06 17:09:19;;;;;;;1.40;1.30;;;17.20;59.40;;;17.38;39.96;97335.00;4858931;28;111941;-92
2022/04/06 17:12:08;;;;;;;1.30;1.20;;;17.10;59.40;;;17.31;40.37;97335.00;4859877;28;122054;-92
2022/04/06 17:14:54;;;;;;;1.30;1.20;;;17.00;59.50;;;17.25;40.32;97337.38;4863364;28;123689;-91
2022/04/06 17:17:20;;;;;;;3.80;1.00;;;17.00;59.70;;;17.20;40.58;97341.34;4864637;28;113582;-91
2022/04/06 17:19:49;;;;;;;1.20;1.10;;;16.90;59.80;;;17.17;40.68;97352.50;4844766;28;113252;-92
2022/04/06 17:22:18;;;;;;;1.43;1.10;;;16.90;60.00;;;17.12;40.84;97341.69;4858993;28;122783;-93
2022/04/06 17:24:44;;;;;;;1.20;1.10;;;16.80;60.10;;;17.05;40.81;97356.41;4856374;28;123198;-93
2022/04/06 17:27:11;;;;;;;1.10;1.00;;;16.70;60.20;;;16.97;40.84;97343.59;4858998;28;114938;-92
2022/04/06 17:30:16;;;;;;;1.40;1.10;;;16.70;60.40;;;16.90;40.92;97349.97;4850059;28;113306;-91
2022/04/06 17:32:44;;;;;;;1.30;1.13;;;16.60;60.60;;;16.85;41.34;97346.75;4895348;28;122951;-91
2022/04/06 17:35:13;;;;;;;1.90;1.20;;;16.60;60.80;;;16.81;41.47;97348.69;4878330;28;121574;-93
2022/04/06 17:37:40;;;;;;;1.37;1.13;;;16.50;61.00;;;16.74;41.27;97350.22;4878500;28;113216;-92
2022/04/06 17:40:08;;;;;;;1.20;1.10;;;16.40;61.10;;;16.67;41.86;97352.97;4866573;28;113030;-92
2022/04/06 17:43:34;;;;;;;1.30;1.20;;;16.40;61.50;;;16.62;41.87;97347.75;4875620;28;121995;-93
2022/04/06 17:50:36;;;;;;;2.77;1.20;;;16.30;61.90;;;16.44;42.06;97355.19;4896580;28;114794;-93
2022/04/06 17:56:49;;;;;;;1.87;1.20;;;16.10;62.20;;;16.39;42.42;97347.19;4892460;28;125128;-93
2022/04/06 17:59:20;;;;;;;1.10;1.00;;;16.10;62.40;;;16.39;42.37;97352.75;4814237;29;122204;-92
2022/04/06 18:02:12;;;;;;;2.00;1.30;;;16.10;62.60;;;16.37;42.62;97347.59;4907118;28;96957;-92
2022/04/06 18:04:41;;;;;;;1.30;1.20;;;16.00;62.70;;;16.37;42.38;97349.56;4926032;28;112548;-93
2022/04/06 18:07:30;;;;;;;1.60;1.20;;;16.00;62.60;;;16.32;42.53;97351.50;4924177;28;124465;-94
2022/04/06 18:09:58;;;;;;;1.53;1.20;;;16.00;62.70;;;16.30;42.48;97348.31;4913053;28;123791;-92
2022/04/06 18:16:14;;;;;;;2.80;1.23;;;15.90;63.00;;;16.12;42.86;97350.16;4924433;28;116012;-87
2022/04/06 18:19:39;;;;;;;1.93;1.30;;;15.80;63.10;;;16.05;43.06;97361.25;4905087;28;124040;-92
2022/04/06 18:22:07;;;;;;;3.77;1.30;;;15.80;63.50;;;15.98;43.39;97366.75;4910002;28;125697;-92
2022/04/06 18:28:17;;;;;;;1.60;1.33;;;15.50;64.40;;;15.64;44.26;97356.44;4929203;28;116075;-93
2022/04/06 18:30:43;;;;;;;2.67;1.43;;;15.40;64.80;;;15.57;44.63;97361.13;4936379;28;124182;-89
2022/04/06 18:34:02;;;;;;;1.57;1.37;;;15.20;65.20;;;15.46;44.60;97363.78;5210092;23;123855;-92
2022/04/06 18:37:27;;;;;;;1.63;1.40;;;15.20;65.40;;;15.40;45.05;97382.00;4861790;28;115071;-93
2022/04/06 18:39:57;;;;;;;1.30;1.20;;;15.10;65.80;;;15.33;44.98;97368.78;4932398;28;115011;-92
2022/04/06 18:42:27;;;;;;;2.67;1.40;;;15.00;66.00;;;15.30;45.10;97379.91;4927638;28;124473;-90
2022/04/06 18:44:55;;;;;;;1.43;1.10;;;16.20;67.20;;;15.27;45.16;97391.78;4916300;28;123132;-91
2022/04/06 18:47:42;;;;;;;1.50;1.40;;;15.00;66.30;;;15.25;45.20;97386.59;4928607;28;113501;-91
2022/04/06 18:50:29;;;;;;;2.13;1.30;;;15.00;66.40;;;15.25;45.40;97392.16;4880569;28;111886;-91
2022/04/06 18:56:37;;;;;;;1.33;1.10;;;14.90;66.80;;;15.19;45.54;97386.13;4879856;29;124737;-93
2022/04/06 18:59:27;;;;;;;1.00;0.90;;;14.90;66.90;;;15.21;45.55;97385.75;4871146;28;112510;-92
2022/04/06 19:01:58;;;;;;;1.30;1.17;;;14.80;67.10;;;15.21;45.45;97388.53;4853828;29;112616;-91
2022/04/06 19:04:53;;;;;;;1.60;1.10;;;14.80;67.20;;;15.17;45.67;97394.03;4887699;28;123190;-88
2022/04/06 19:08:01;;;;;;;2.10;1.60;;;14.80;67.50;;;15.12;45.83;97391.56;4866676;28;122166;-91
2022/04/06 19:14:15;;;;;;;3.47;1.50;;;14.70;68.10;;;14.99;46.47;97401.34;4894117;28;114272;-92
2022/04/06 19:16:43;;;;;;;1.97;1.40;;;14.60;68.50;;;14.93;46.65;97378.59;4872920;28;123269;-90
2022/04/06 19:19:29;;;;;;;1.47;1.20;;;14.60;68.80;;;14.90;46.82;97379.38;4872916;29;123847;-89
2022/04/06 19:25:39;;;;;;;1.83;1.47;;;14.50;69.10;;;14.80;47.15;97388.34;4909669;28;115904;-89
2022/04/06 19:31:47;;;;;;;2.07;1.20;;;14.40;69.60;;;14.67;47.56;97389.75;4920401;28;124822;-77
2022/04/06 19:37:55;;;;;;;2.20;1.17;;;14.30;70.20;;;14.56;47.61;97390.41;4924307;28;115101;-82
2022/04/06 19:40:22;;;;;;;2.97;1.50;;;14.20;70.30;;;14.57;47.62;97392.00;4907039;28;124581;-93
2022/04/06 19:46:30;;;;;;;1.50;1.40;;;14.20;70.70;;;14.52;47.89;97389.53;4923546;28;115232;-83
2022/04/06 19:52:38;;;;;;;1.67;1.40;;;14.10;71.00;;;14.49;47.97;97381.91;4922865;28;125172;-93
2022/04/06 20:02:48;;;;;;;1.50;1.20;;;14.10;71.50;;;14.36;48.36;97391.63;4943896;28;114880;-86
2022/04/06 20:05:16;;;;;;;1.37;1.27;;;14.00;71.80;;;14.32;48.53;97380.47;4940429;28;124805;-89
2022/04/06 20:07:46;;;;;;;1.67;1.30;;;14.00;71.80;;;14.32;48.53;97383.25;4934334;28;124600;-93
2022/04/06 20:14:37;;;;;;;1.50;1.30;;;13.90;72.20;;;14.29;48.68;97391.50;4939983;28;114323;-94
2022/04/06 20:20:46;;;;;;;1.33;1.23;;;13.90;72.80;;;14.26;49.04;97378.34;4942146;28;124817;-93
2022/04/06 20:26:54;;;;;;;2.20;1.60;;;13.90;73.70;;;14.22;49.71;97369.19;4942008;28;116041;-89
2022/04/06 20:33:02;;;;;;;2.10;1.27;;;13.80;74.40;;;14.14;50.23;97363.50;4940871;28;124665;-90
2022/04/06 20:39:17;;;;;;;2.00;1.50;;;13.70;74.90;;;14.08;50.51;97362.22;4941969;28;115021;-86
2022/04/06 20:45:26;;;;;;;3.00;1.60;;;13.70;75.90;;;13.99;51.12;97356.09;4942582;28;124793;-91
2022/04/06 20:51:35;;;;;;;1.23;1.10;;;13.60;76.40;;;13.90;51.52;97356.34;4941476;28;114930;-89
2022/04/06 21:01:26;;;;;;;1.40;1.30;;;13.50;77.40;;;13.87;51.81;97353.50;4924000;28;115348;-76
2022/04/06 21:07:35;;;;;;;1.90;1.70;;;13.50;77.80;;;13.90;52.20;97338.88;4929018;28;124979;-89